KEBS/EBS METAR and TAF weather

Enter ICAO airport designator
Station Type Date Time Source
KEBS METAR 2019/08/25 13:55 UTC NOAA

KEBS 251355Z AUTO 12010KT 10SM OVC060 17/16 A2999 RMK AO2


Station Type Date Time Source
KEBS Decoded METAR 2019/08/25 13:55 UTC NOAA

Station name not available
Aug 25, 2019 - 09:55 AM EDT / 2019.08.25 1355 UTC
Wind: from the ESE (120 degrees) at 12 MPH (10 KT):0
Visibility: 10 mile(s):0
Sky conditions: overcast
Temperature: 62 F (17 C)
Dew Point: 60 F (16 C)
Relative Humidity: 93%
Pressure (altimeter): 29.99 in. Hg (1015 hPa)
ob: KEBS 251355Z AUTO 12010KT 10SM OVC060 17/16 A2999 RMK AO2
cycle: 14

Station Type Date Time Source
KEBS TAF UTC NOAA

Error!

Example: see airport list